createdAt,value
2022-08-18T00:00:59.476Z,99912.42
2022-08-18T00:03:56.965Z,99913.14
2022-08-18T00:06:35.714Z,99917.55
2022-08-18T00:09:10.687Z,99922.98
2022-08-18T00:12:00.679Z,99927.34
2022-08-18T00:14:55.266Z,99932.95
2022-08-18T00:17:33.348Z,99936.80
2022-08-18T00:20:12.084Z,99938.71
2022-08-18T00:22:46.426Z,99945.44
2022-08-18T00:26:15.136Z,99948.63
2022-08-18T00:29:09.723Z,99951.09
2022-08-18T00:32:37.924Z,99954.52
2022-08-18T00:36:00.779Z,99954.41
2022-08-18T00:39:30.230Z,99955.39
2022-08-18T00:43:10.538Z,99952.32
2022-08-18T00:46:40.449Z,99952.46
2022-08-18T00:49:57.658Z,99956.77
2022-08-18T00:52:51.634Z,99956.67
2022-08-18T00:55:31.974Z,99954.77
2022-08-18T00:58:18.821Z,99951.96
2022-08-18T01:01:31.192Z,99952.31
2022-08-18T01:04:46.165Z,99949.64
2022-08-18T01:08:04.615Z,99946.57
2022-08-18T01:11:06.319Z,99942.70
2022-08-18T01:14:36.484Z,99949.34
2022-08-18T01:17:30.117Z,99947.73
2022-08-18T01:20:33.279Z,99948.59
2022-08-18T01:24:03.599Z,99948.26
2022-08-18T01:27:39.180Z,99951.90
2022-08-18T01:30:26.505Z,99952.02
2022-08-18T01:32:56.260Z,99947.09
2022-08-18T01:35:36.244Z,99946.45
2022-08-18T01:38:33.867Z,99947.92
2022-08-18T01:41:30.693Z,99946.20
2022-08-18T01:44:11.721Z,99941.64
2022-08-18T01:47:03.675Z,99944.48
2022-08-18T01:49:55.852Z,99940.69
2022-08-18T01:53:05.887Z,99938.89
2022-08-18T01:55:39.588Z,99942.11
2022-08-18T01:58:12.504Z,99946.39
2022-08-18T02:00:43.490Z,99942.96
2022-08-18T02:03:15.467Z,99946.29
2022-08-18T02:05:50.106Z,99942.95
2022-08-18T02:08:20.071Z,99940.88
2022-08-18T02:10:51.847Z,99937.95
2022-08-18T02:13:36.542Z,99932.83
2022-08-18T02:16:08.387Z,99935.11
2022-08-18T02:18:48.243Z,99938.80
2022-08-18T02:21:59.139Z,99940.66
2022-08-18T02:24:30.344Z,99937.29
2022-08-18T02:27:31.251Z,99933.39
2022-08-18T02:30:26.588Z,99933.07
2022-08-18T02:33:36.605Z,99933.27
2022-08-18T02:36:37.362Z,99928.35
2022-08-18T02:39:15.593Z,99925.34
2022-08-18T02:41:53.708Z,99925.70
2022-08-18T02:44:34.561Z,99924.21
2022-08-18T02:47:47.719Z,99923.17
2022-08-18T02:50:45.647Z,99922.97
2022-08-18T02:53:36.918Z,99920.40
2022-08-18T02:56:57.624Z,99923.95
2022-08-18T02:59:32.075Z,99924.25
2022-08-18T03:02:23.434Z,99926.52
2022-08-18T03:05:22.539Z,99922.48
2022-08-18T03:08:36.403Z,99923.58
2022-08-18T03:11:46.685Z,99923.92
2022-08-18T03:14:30.574Z,99920.95
2022-08-18T03:17:42.160Z,99921.98
2022-08-18T03:20:56.198Z,99928.95
2022-08-18T03:24:09.233Z,99929.29
2022-08-18T03:27:23.579Z,99927.83
2022-08-18T03:30:22.169Z,99935.06
2022-08-18T03:32:55.172Z,99940.39
2022-08-18T03:39:37.839Z,99946.35
2022-08-18T03:42:08.584Z,99948.37
2022-08-18T03:44:42.764Z,99949.45
2022-08-18T03:47:14.722Z,99955.44
2022-08-18T03:49:48.643Z,99957.06
2022-08-18T03:52:26.150Z,99961.52
2022-08-18T03:54:59.144Z,99964.80
2022-08-18T04:00:24.715Z,99965.98
2022-08-18T04:03:01.474Z,99967.81
2022-08-18T04:06:04.741Z,99971.02
2022-08-18T04:08:39.642Z,99968.87
2022-08-18T04:11:09.065Z,99968.11
2022-08-18T04:13:40.144Z,99968.52
2022-08-18T04:16:22.637Z,99973.73
2022-08-18T04:19:02.913Z,99972.47
2022-08-18T04:21:57.804Z,99970.79
2022-08-18T04:25:09.889Z,99972.13
2022-08-18T04:28:20.284Z,99969.91
2022-08-18T04:31:15.496Z,99968.60
2022-08-18T04:34:45.463Z,99969.89
2022-08-18T04:37:28.474Z,99970.18
2022-08-18T04:40:12.993Z,99966.66
2022-08-18T04:43:06.125Z,99969.26
2022-08-18T04:45:45.460Z,99974.83
2022-08-18T04:48:19.948Z,99980.33
2022-08-18T04:50:59.188Z,99975.52
2022-08-18T04:54:05.764Z,99979.77
2022-08-18T04:56:40.692Z,99985.55
2022-08-18T04:59:29.788Z,99982.92
2022-08-18T05:02:33.916Z,99985.73
2022-08-18T05:05:29.573Z,99987.61
2022-08-18T05:08:01.583Z,99989.97
2022-08-18T05:10:33.483Z,99984.61
2022-08-18T05:13:18.383Z,99983.02
2022-08-18T05:16:09.980Z,99982.76
2022-08-18T05:19:00.069Z,99977.34
2022-08-18T05:22:00.490Z,99974.80
2022-08-18T05:24:37.865Z,99979.55
2022-08-18T05:27:20.348Z,99983.52
2022-08-18T05:30:09.606Z,99982.38
2022-08-18T05:33:00.224Z,99983.25
2022-08-18T05:36:20.423Z,99983.29
2022-08-18T05:39:21.441Z,99981.11
2022-08-18T05:42:23.313Z,99981.71
2022-08-18T05:44:58.522Z,99983.89
2022-08-18T05:48:29.157Z,99991.05
2022-08-18T05:51:53.272Z,99992.39
2022-08-18T05:55:01.657Z,99993.89
2022-08-18T05:57:59.774Z,99993.77
2022-08-18T06:01:29.919Z,99993.09
2022-08-18T06:05:07.084Z,99993.54
2022-08-18T06:08:57.543Z,99992.16
2022-08-18T06:12:15.494Z,99988.95
2022-08-18T06:15:40.672Z,99986.73
2022-08-18T06:19:22.734Z,99992.40
2022-08-18T06:31:52.865Z,99981.47
2022-08-18T06:35:12.755Z,99986.33
2022-08-18T06:38:39.135Z,99987.36
2022-08-18T06:41:40.842Z,99992.59
2022-08-18T06:44:14.588Z,99999.20
2022-08-18T06:46:53.695Z,99998.63
2022-08-18T06:49:56.578Z,99996.14
2022-08-18T06:52:56.912Z,99990.91
2022-08-18T06:56:09.975Z,99994.13
2022-08-18T06:59:34.675Z,99999.31
2022-08-18T07:06:43.958Z,100003.52
2022-08-18T07:16:15.881Z,100011.46
2022-08-18T07:34:44.688Z,100007.05
2022-08-18T07:38:40.673Z,100005.95
2022-08-18T07:42:34.913Z,100010.39
2022-08-18T07:45:56.822Z,100010.55
2022-08-18T07:48:59.741Z,100008.88
2022-08-18T07:52:36.474Z,100010.48
2022-08-18T07:55:49.595Z,100012.48
2022-08-18T07:59:10.615Z,100019.00
2022-08-18T08:02:34.424Z,100016.23
2022-08-18T08:06:10.093Z,100014.50
2022-08-18T08:09:30.534Z,100010.88
2022-08-18T08:12:36.351Z,100014.56
2022-08-18T08:15:37.378Z,100017.95
2022-08-18T08:18:57.819Z,100015.54
2022-08-18T08:21:53.886Z,100013.06
2022-08-18T08:24:44.851Z,100014.48
2022-08-18T08:27:20.702Z,100016.65
2022-08-18T08:30:06.692Z,100018.17
2022-08-18T08:32:46.771Z,100025.23
2022-08-18T08:35:49.790Z,100026.41
2022-08-18T08:38:42.509Z,100024.21
2022-08-18T08:41:39.431Z,100017.85
2022-08-18T08:44:59.775Z,100019.59
2022-08-18T08:47:37.760Z,100013.61
2022-08-18T08:50:21.785Z,100007.26
2022-08-18T08:53:22.442Z,100008.13
2022-08-18T08:56:01.686Z,100009.66
2022-08-18T08:58:53.288Z,100007.69
2022-08-18T09:02:01.986Z,100002.08
2022-08-18T09:05:09.338Z,99999.81
2022-08-18T09:08:13.217Z,99999.06
2022-08-18T09:11:27.147Z,99998.86
2022-08-18T09:14:24.589Z,100004.83
2022-08-18T09:17:03.383Z,100001.70
2022-08-18T09:20:04.197Z,100003.73
2022-08-18T09:22:53.430Z,99995.71
2022-08-18T09:25:43.396Z,99993.80
2022-08-18T09:28:42.013Z,99989.94
2022-08-18T09:31:11.342Z,99990.05
2022-08-18T09:34:33.388Z,99989.21
2022-08-18T09:37:13.641Z,99982.67
2022-08-18T09:40:38.739Z,99979.02
2022-08-18T09:43:12.581Z,99985.42
2022-08-18T09:45:49.283Z,99988.80
2022-08-18T09:48:43.071Z,99988.13
2022-08-18T09:51:19.660Z,99986.93
2022-08-18T09:54:14.297Z,99982.50
2022-08-18T09:56:53.906Z,99984.84
2022-08-18T10:00:05.570Z,99987.58
2022-08-18T10:02:37.057Z,99990.43
2022-08-18T10:05:22.547Z,99985.27
2022-08-18T10:08:31.925Z,99989.59
2022-08-18T10:11:27.514Z,99991.66
2022-08-18T10:14:30.590Z,99988.64
2022-08-18T10:17:45.166Z,99987.17
2022-08-18T10:20:28.516Z,99985.46
2022-08-18T10:23:01.354Z,99987.64
2022-08-18T10:25:36.159Z,99990.70
2022-08-18T10:28:11.846Z,99992.11
2022-08-18T10:30:57.064Z,99993.41
2022-08-18T10:34:59.951Z,99986.52
2022-08-18T10:38:02.000Z,99986.95
2022-08-18T10:40:37.445Z,99988.73
2022-08-18T10:43:45.908Z,99986.30
2022-08-18T10:46:39.594Z,99992.26
2022-08-18T10:49:13.444Z,99988.42
2022-08-18T10:52:16.064Z,99987.15
2022-08-18T10:54:54.708Z,99987.45
2022-08-18T10:57:59.241Z,99983.40
2022-08-18T11:01:08.500Z,99979.51
2022-08-18T11:07:25.546Z,99967.04
2022-08-18T11:10:28.280Z,99976.73
2022-08-18T11:13:15.700Z,99977.23
2022-08-18T11:16:05.613Z,99966.33
2022-08-18T11:19:09.430Z,99965.67
2022-08-18T11:21:53.574Z,99968.27
2022-08-18T11:24:55.377Z,99962.71
2022-08-18T11:27:27.938Z,99956.71
2022-08-18T11:30:02.819Z,99951.70
2022-08-18T11:32:53.561Z,99950.04
2022-08-18T11:36:01.856Z,99945.48
2022-08-18T11:38:33.123Z,99946.77
2022-08-18T11:41:20.087Z,99943.48
2022-08-18T11:43:56.106Z,99942.20
2022-08-18T11:46:32.181Z,99943.98
2022-08-18T11:49:17.769Z,99940.72
2022-08-18T11:52:19.684Z,99941.45
2022-08-18T11:55:16.526Z,99936.54
2022-08-18T12:00:47.681Z,99923.45
2022-08-18T12:03:47.461Z,99920.27
2022-08-18T12:06:43.981Z,99922.34
2022-08-18T12:09:36.932Z,99921.41
2022-08-18T12:12:32.617Z,99918.77
2022-08-18T12:15:24.154Z,99920.64
2022-08-18T12:59:21.494Z,99890.30
2022-08-18T13:02:55.946Z,99885.21
2022-08-18T13:05:31.405Z,99882.16
2022-08-18T13:08:04.885Z,99879.76
2022-08-18T13:10:46.646Z,99882.91
2022-08-18T13:13:21.475Z,99879.55
2022-08-18T13:15:58.493Z,99878.27
2022-08-18T13:18:30.707Z,99877.39
2022-08-18T13:21:24.783Z,99877.62
2022-08-18T13:24:00.508Z,99868.02
2022-08-18T13:27:18.403Z,99874.58
2022-08-18T13:29:57.027Z,99873.86
2022-08-18T13:32:47.035Z,99875.70
2022-08-18T13:40:07.476Z,99867.98
2022-08-18T13:42:50.797Z,99863.23
2022-08-18T13:45:25.557Z,99868.46
2022-08-18T13:47:58.430Z,99866.46
2022-08-18T13:50:31.698Z,99862.06
2022-08-18T13:55:44.260Z,99853.58
2022-08-18T13:58:20.950Z,99856.66
2022-08-18T14:01:42.599Z,99862.63
2022-08-18T14:04:06.072Z,99867.17
2022-08-18T14:06:50.957Z,99868.49
2022-08-18T14:09:36.721Z,99862.17
2022-08-18T14:12:33.107Z,99874.09
2022-08-18T14:15:09.353Z,99877.48
2022-08-18T14:17:43.295Z,99875.80
2022-08-18T14:20:35.516Z,99873.77
2022-08-18T14:23:27.941Z,99872.98
2022-08-18T14:26:21.949Z,99880.60
2022-08-18T14:29:00.808Z,99885.27
2022-08-18T14:31:35.278Z,99885.56
2022-08-18T14:34:05.164Z,99882.93
2022-08-18T14:36:36.687Z,99881.83
2022-08-18T14:39:08.292Z,99884.08
2022-08-18T14:41:40.869Z,99885.04
2022-08-18T14:44:21.807Z,99890.59
2022-08-18T14:47:03.099Z,99890.95
2022-08-18T14:49:42.961Z,99889.33
2022-08-18T14:52:19.117Z,99887.54
2022-08-18T14:54:51.745Z,99890.37
2022-08-18T14:57:49.387Z,99889.30
2022-08-18T15:00:22.594Z,99889.58
2022-08-18T15:02:53.439Z,99890.91
2022-08-18T15:05:24.939Z,99892.17
2022-08-18T15:07:59.335Z,99889.00
2022-08-18T15:10:30.140Z,99884.41
2022-08-18T15:13:04.372Z,99878.88
2022-08-18T15:15:50.672Z,99876.56
2022-08-18T15:18:23.134Z,99877.35
2022-08-18T15:21:19.620Z,99874.66
2022-08-18T15:24:28.254Z,99864.31
2022-08-18T15:27:06.134Z,99859.85
2022-08-18T15:29:46.265Z,99867.73
2022-08-18T15:32:18.790Z,99867.41
2022-08-18T15:34:53.205Z,99869.52
2022-08-18T15:37:29.955Z,99866.38
2022-08-18T15:40:31.116Z,99857.25
2022-08-18T15:43:10.799Z,99856.11
2022-08-18T15:45:56.162Z,99860.08
2022-08-18T15:48:30.567Z,99861.34
2022-08-18T15:51:11.927Z,99853.80
2022-08-18T15:53:45.723Z,99852.56
2022-08-18T15:56:25.883Z,99854.52
2022-08-18T15:58:58.870Z,99853.88
2022-08-18T16:01:33.857Z,99856.21
2022-08-18T16:06:41.826Z,99851.54
2022-08-18T16:09:15.197Z,99845.23
2022-08-18T16:11:46.477Z,99845.06
2022-08-18T16:14:17.942Z,99838.75
2022-08-18T16:16:48.448Z,99839.44
2022-08-18T16:19:25.698Z,99840.84
2022-08-18T16:22:07.052Z,99832.61
2022-08-18T16:24:38.121Z,99833.29
2022-08-18T16:27:09.357Z,99832.95
2022-08-18T16:29:44.156Z,99828.66
2022-08-18T16:32:16.891Z,99829.23
2022-08-18T16:35:21.324Z,99832.09
2022-08-18T16:38:05.853Z,99840.59
2022-08-18T16:40:38.219Z,99843.95
2022-08-18T16:43:11.067Z,99836.33
2022-08-18T16:45:43.221Z,99835.02
2022-08-18T16:48:17.046Z,99839.58
2022-08-18T16:50:51.754Z,99841.33
2022-08-18T16:53:24.769Z,99845.00
2022-08-18T16:55:56.108Z,99843.95
2022-08-18T16:58:45.995Z,99847.10
2022-08-18T17:01:48.992Z,99851.08
2022-08-18T17:04:29.218Z,99853.71
2022-08-18T17:07:07.185Z,99855.15
2022-08-18T17:09:39.957Z,99854.01
2022-08-18T17:12:41.576Z,99852.94
2022-08-18T17:15:16.358Z,99853.09
2022-08-18T17:24:08.502Z,99856.33
2022-08-18T17:27:27.804Z,99864.20
2022-08-18T17:31:25.136Z,99857.58
2022-08-18T17:35:10.928Z,99859.63
2022-08-18T17:38:42.673Z,99856.16
2022-08-18T17:42:00.688Z,99855.15
2022-08-18T17:52:11.507Z,99855.41
2022-08-18T17:55:45.665Z,99849.10
2022-08-18T18:03:09.803Z,99844.79
2022-08-18T18:06:57.724Z,99844.17
2022-08-18T18:13:48.121Z,99855.82
2022-08-18T18:20:20.954Z,99855.30
2022-08-18T18:23:30.548Z,99862.44
2022-08-18T18:26:59.087Z,99868.07
2022-08-18T18:30:14.669Z,99869.86
2022-08-18T18:33:39.227Z,99873.27
2022-08-18T18:39:42.132Z,99873.27
2022-08-18T18:45:57.575Z,99871.80
2022-08-18T18:52:40.301Z,99880.23
2022-08-18T18:56:05.764Z,99889.90
2022-08-18T18:59:35.455Z,99887.77
2022-08-18T19:03:58.914Z,99886.58
2022-08-18T19:10:40.063Z,99890.09
2022-08-18T19:14:17.616Z,99885.80
2022-08-18T19:17:39.059Z,99886.60
2022-08-18T19:22:02.511Z,99891.84
2022-08-18T19:24:35.439Z,99897.02
2022-08-18T19:41:05.687Z,99914.35
2022-08-18T19:44:47.362Z,99912.64
2022-08-18T19:52:46.601Z,99905.10
2022-08-18T19:55:39.044Z,99899.84
2022-08-18T20:01:58.389Z,99905.27
2022-08-18T20:05:20.115Z,99906.92
2022-08-18T20:15:18.995Z,99896.73
2022-08-18T20:19:16.070Z,99899.84
2022-08-18T20:25:50.409Z,99903.69
2022-08-18T20:29:00.442Z,99899.15
2022-08-18T20:32:13.279Z,99900.34
2022-08-18T20:39:05.826Z,99895.69
2022-08-18T20:42:21.662Z,99896.02
2022-08-18T20:49:14.002Z,99881.33
2022-08-18T20:53:04.405Z,99876.64
2022-08-18T20:56:31.166Z,99876.89
2022-08-18T20:59:47.791Z,99876.44
2022-08-18T21:15:59.939Z,99868.77
2022-08-18T21:22:05.047Z,99878.97
2022-08-18T21:35:54.188Z,99866.80
2022-08-18T22:00:50.923Z,99860.86
2022-08-18T22:04:06.740Z,99856.66
2022-08-18T22:07:22.049Z,99861.91
2022-08-18T22:10:42.963Z,99860.48
2022-08-18T22:14:11.762Z,99854.64
2022-08-18T22:21:27.382Z,99854.23
2022-08-18T22:34:28.495Z,99854.80
2022-08-18T22:37:15.871Z,99851.35
2022-08-18T22:40:22.494Z,99847.08
2022-08-18T22:43:47.747Z,99848.25
2022-08-18T22:47:05.883Z,99843.71
2022-08-18T22:50:40.855Z,99847.10
2022-08-18T23:03:01.351Z,99835.27
2022-08-18T23:13:04.441Z,99839.67
2022-08-18T23:19:52.076Z,99843.09
2022-08-18T23:23:12.898Z,99849.91
2022-08-18T23:26:47.429Z,99852.73
2022-08-18T23:30:22.766Z,99844.91
2022-08-18T23:33:29.907Z,99849.89
2022-08-18T23:36:59.932Z,99843.64
2022-08-18T23:40:29.357Z,99850.13
2022-08-18T23:53:37.437Z,99848.27
2022-08-18T23:57:03.770Z,99849.23
